Manchester, United Kingdom

1:27 PM BST on August 23, 2014 (GMT +0100)
Manchester | Change Station
CLOSE
Current Station
Airport
Location: Manchester,
Elevation: 256 ft
Nearby Weather Stations

Elev 256 ft 53.35 °N, 2.27 °W | Updated 7 minutes ago

Light Rain
Light Rain
55 °F
Feels Like 55 °F
N
7
Wind Variable Wind from WNW

Today
High -- | Low -- °F
--% Chance of Precip.
Yesterday
High -- | Low -- °F
Precip. -- in
6:02 AM 8:19 PM
Waning Crescent, 4% visible
Pressure 29.98 in
Visibility 6.2 miles
Clouds Few 2400 ft
Scattered Clouds 3000 ft
Mostly Cloudy 4500 ft
Dew Point 48 °F
Humidity 77%
Rainfall 0.00 in
Snow Depth Not available.
UV 4 out of 12
Pollen Not available.
Air Quality Not available.
Flu Activity Not available.
METAR EGCC 231220Z 29006KT 260V330 9999 -RA FEW024 SCT030 BKN045 13/09 Q1015 RERA TEMPO SHRA

More Conditions Fewer Conditions

Pressure 29.98 in
Visibility 6.2 miles
Clouds Few 2400 ft
Scattered Clouds 3000 ft
Mostly Cloudy 4500 ft
Dew Point 48 °F
Humidity 77%
Rainfall 0.00 in
Snow Depth Not available.
UV 4 out of 12
Pollen Not available.
Air Quality Not available.
Flu Activity Not available.
METAR EGCC 231220Z 29006KT 260V330 9999 -RA FEW024 SCT030 BKN045 13/09 Q1015 RERA TEMPO SHRA

More Conditions Fewer Conditions

10-Day Weather Forecast

Almanac

Astronomy

Aug. 23, 2014 Rise Set
Actual Time 6:02 AM BST 8:19 PM BST
Civil Twilight 5:24 AM BST 8:57 PM BST
Nautical Twilight 4:36 AM BST 9:45 PM BST
Astronomical Twilight 3:38 AM BST 10:42 PM BST
Moon 3:58 AM BST 6:58 PM BST
Length of Visible Light 15h 33m
Length of Day
14h 17m
Tomorrow will be 3m 59s shorter.
Waning Crescent, 4% of the Moon is Illuminated
Today
Waning Crescent
Aug 25
New
Sep 2
First Quarter
Sep 8
Full
Sep 15
Last Quarter

Yesterday's Extremes

Country Highs Country Lows

Community

WunderPhotos

Upload Photos

1,746,424 photos uploaded!

WunderBlogs® & News

By Dr. Jeff Masters
Director of Meteorology, Weather Underground
By Kari Strenfel
Meteorologist, Weather Underground
By Christopher C. Burt
Weather Historian, Weather Underground
August 23, 2014
August 23, 2014
August 23, 2014

Nearby

Snow Depth

Not available.

Earthquake Activity

City Distance Mag. Time & Date
No recent earthquake activity has been reported nearby.
Minimum magnitude displayed is 2.5.

Coastal Water Temperatures

Place Temperature
No Stations Reporting

Nearby Weather Stations